Time;durP1;ratioP1;P1;durP2;ratioP2;P2;SDS_P1;SDS_P2;PMS_P1;PMS_P2;Temp;Humidity;BMP_temperature;BMP_pressure;BME280_temperature;BME280_humidity;BME280_pressure;Samples;Min_cycle;Max_cycle;Signal;HPM_P1;HPM_P2
2023/05/10 00:01:59;;;;;;;8.70;3.90;;;;;;;;;;5047846;28;20083;-70
2023/05/10 00:04:27;;;;;;;8.35;4.28;;;;;;;;;;5052255;28;20045;-71
2023/05/10 00:06:53;;;;;;;8.95;4.32;;;;;;;;;;5052780;28;20086;-71
2023/05/10 00:09:19;;;;;;;9.93;4.00;;;;;;;;;;5052450;28;20398;-71
2023/05/10 00:11:45;;;;;;;7.05;3.75;;;;;;;;;;5052359;28;20021;-71
2023/05/10 00:14:11;;;;;;;8.20;3.92;;;;;;;;;;5052510;28;20021;-71
2023/05/10 00:16:37;;;;;;;9.43;3.90;;;;;;;;;;5052407;28;20059;-71
2023/05/10 00:19:03;;;;;;;7.15;3.47;;;;;;;;;;5052347;28;20532;-71
2023/05/10 00:21:29;;;;;;;8.68;4.10;;;;;;;;;;5052666;28;20029;-70
2023/05/10 00:23:55;;;;;;;10.65;4.10;;;;;;;;;;5052416;28;20028;-71
2023/05/10 00:26:21;;;;;;;9.93;3.90;;;;;;;;;;5052200;28;20029;-70
2023/05/10 00:28:47;;;;;;;17.60;4.20;;;;;;;;;;5052189;28;20061;-73
2023/05/10 00:31:14;;;;;;;11.95;4.28;;;;;;;;;;5052194;28;20028;-71
2023/05/10 00:33:40;;;;;;;9.02;3.95;;;;;;;;;;5052539;28;20573;-70
2023/05/10 00:36:07;;;;;;;7.70;3.92;;;;;;;;;;5052203;28;20029;-69
2023/05/10 00:38:33;;;;;;;11.95;4.20;;;;;;;;;;5052119;28;20017;-70
2023/05/10 00:40:59;;;;;;;10.02;4.43;;;;;;;;;;5052012;28;20498;-70
2023/05/10 00:43:25;;;;;;;12.05;4.53;;;;;;;;;;5051848;28;20021;-69
2023/05/10 00:45:51;;;;;;;8.80;4.25;;;;;;;;;;5052000;28;20036;-70
2023/05/10 00:48:17;;;;;;;8.90;3.83;;;;;;;;;;5051893;28;20029;-69
2023/05/10 00:50:44;;;;;;;7.88;3.80;;;;;;;;;;5051659;28;20111;-71
2023/05/10 00:53:10;;;;;;;12.02;4.90;;;;;;;;;;5051601;28;20553;-70
2023/05/10 00:55:37;;;;;;;13.60;4.65;;;;;;;;;;5051941;28;20040;-70
2023/05/10 00:58:03;;;;;;;11.85;4.15;;;;;;;;;;5051735;28;20021;-70
2023/05/10 01:00:29;;;;;;;9.35;4.40;;;;;;;;;;5051899;28;20029;-72
2023/05/10 01:02:55;;;;;;;14.25;4.72;;;;;;;;;;5051398;28;20084;-69
2023/05/10 01:05:21;;;;;;;9.98;4.10;;;;;;;;;;5051654;28;20103;-71
2023/05/10 01:07:48;;;;;;;10.00;4.57;;;;;;;;;;5051686;28;20044;-71
2023/05/10 01:10:14;;;;;;;11.30;4.50;;;;;;;;;;5051412;28;20390;-71
2023/05/10 01:12:43;;;;;;;10.55;4.13;;;;;;;;;;5051345;28;20041;-71
2023/05/10 01:15:11;;;;;;;13.05;4.35;;;;;;;;;;5051563;28;20116;-69
2023/05/10 01:17:38;;;;;;;11.25;3.97;;;;;;;;;;5051608;28;20032;-70
2023/05/10 01:20:04;;;;;;;7.18;4.20;;;;;;;;;;5051515;28;20044;-70
2023/05/10 01:22:30;;;;;;;13.57;4.45;;;;;;;;;;5051282;28;20029;-72
2023/05/10 01:24:57;;;;;;;12.75;4.43;;;;;;;;;;5051957;28;20047;-71
2023/05/10 01:27:32;;;;;;;11.23;4.50;;;;;;;;;;5051129;28;20104;-71
2023/05/10 01:30:09;;;;;;;10.63;4.43;;;;;;;;;;5052005;28;20216;-71
2023/05/10 01:32:44;;;;;;;12.48;4.63;;;;;;;;;;5051498;28;20028;-70
2023/05/10 01:35:09;;;;;;;;;;;;;;;;;;5052112;28;20059;-70
2023/05/10 01:37:40;;;;;;;14.35;4.32;;;;;;;;;;5051600;28;19905;-70
2023/05/10 01:40:09;;;;;;;12.07;4.75;;;;;;;;;;5051660;28;20356;-71
2023/05/10 01:42:44;;;;;;;10.20;3.72;;;;;;;;;;5051319;28;20025;-69
2023/05/10 01:45:18;;;;;;;11.05;5.00;;;;;;;;;;5056221;28;20036;-70
2023/05/10 01:47:47;;;;;;;10.73;4.38;;;;;;;;;;5055251;28;20033;-70
2023/05/10 01:50:18;;;;;;;10.25;4.50;;;;;;;;;;5055569;28;20343;-70
2023/05/10 01:52:48;;;;;;;12.43;4.30;;;;;;;;;;5055194;28;20025;-71
2023/05/10 01:55:16;;;;;;;14.07;4.35;;;;;;;;;;5055315;28;20032;-70
2023/05/10 01:57:44;;;;;;;11.10;4.78;;;;;;;;;;5055497;28;20028;-72
2023/05/10 02:00:11;;;;;;;15.30;4.72;;;;;;;;;;5055430;28;20033;-70
2023/05/10 02:02:42;;;;;;;12.05;4.18;;;;;;;;;;5054759;28;20025;-70
2023/05/10 02:05:08;;;;;;;19.67;4.60;;;;;;;;;;5053375;28;20021;-70
2023/05/10 02:07:36;;;;;;;9.60;4.35;;;;;;;;;;5053884;28;20114;-70
2023/05/10 02:10:03;;;;;;;12.30;4.53;;;;;;;;;;5053940;28;20021;-70
2023/05/10 02:12:30;;;;;;;14.68;4.75;;;;;;;;;;5053548;28;20120;-71
2023/05/10 02:14:57;;;;;;;10.05;4.50;;;;;;;;;;5053628;28;20087;-70
2023/05/10 02:17:23;;;;;;;13.23;4.60;;;;;;;;;;5053296;28;20382;-70
2023/05/10 02:19:50;;;;;;;9.95;4.32;;;;;;;;;;5053556;28;20481;-69
2023/05/10 02:22:17;;;;;;;12.20;4.60;;;;;;;;;;5053245;28;20102;-70
2023/05/10 02:24:43;;;;;;;8.55;4.75;;;;;;;;;;5053609;28;20025;-70
2023/05/10 02:27:10;;;;;;;9.98;4.63;;;;;;;;;;5053458;28;20029;-70
2023/05/10 02:29:37;;;;;;;14.43;4.38;;;;;;;;;;5052809;28;20061;-70
2023/05/10 02:32:03;;;;;;;16.02;4.22;;;;;;;;;;5053371;28;20044;-70
2023/05/10 02:34:29;;;;;;;11.13;4.72;;;;;;;;;;5053590;28;20048;-71
2023/05/10 02:36:56;;;;;;;10.27;5.13;;;;;;;;;;5050731;28;20025;-70
2023/05/10 02:39:22;;;;;;;9.77;4.30;;;;;;;;;;5054093;28;20021;-71
2023/05/10 02:41:49;;;;;;;8.80;4.70;;;;;;;;;;5051744;28;20017;-71
2023/05/10 02:44:16;;;;;;;14.05;5.07;;;;;;;;;;5053233;28;20032;-71
2023/05/10 02:46:43;;;;;;;15.02;4.80;;;;;;;;;;5053489;28;20438;-70
2023/05/10 02:49:09;;;;;;;10.70;5.43;;;;;;;;;;5052756;28;20032;-69
2023/05/10 02:51:36;;;;;;;12.88;5.38;;;;;;;;;;5052889;28;20037;-70
2023/05/10 02:54:07;;;;;;;14.07;5.20;;;;;;;;;;5052300;28;20075;-70
2023/05/10 02:56:34;;;;;;;12.15;4.82;;;;;;;;;;5053932;28;20017;-72
2023/05/10 02:59:00;;;;;;;22.70;5.15;;;;;;;;;;5054763;28;20104;-70
2023/05/10 03:01:26;;;;;;;9.52;4.53;;;;;;;;;;5052743;28;20079;-70
2023/05/10 03:03:53;;;;;;;10.00;4.50;;;;;;;;;;5052118;28;20033;-70
2023/05/10 03:06:19;;;;;;;17.15;4.88;;;;;;;;;;5052829;28;20032;-70
2023/05/10 03:08:45;;;;;;;10.23;4.60;;;;;;;;;;5054077;28;20041;-70
2023/05/10 03:11:14;;;;;;;10.38;4.75;;;;;;;;;;5052608;28;20043;-70
2023/05/10 03:13:46;;;;;;;18.52;6.05;;;;;;;;;;5052487;28;20056;-70
2023/05/10 03:16:15;;;;;;;11.77;5.00;;;;;;;;;;5052090;28;20025;-70
2023/05/10 03:18:48;;;;;;;9.40;4.82;;;;;;;;;;5071984;28;20032;-69
2023/05/10 03:21:15;;;;;;;10.48;5.28;;;;;;;;;;5072151;28;20506;-71
2023/05/10 03:23:46;;;;;;;15.23;5.15;;;;;;;;;;5072035;28;20016;-71
2023/05/10 03:26:18;;;;;;;13.88;4.70;;;;;;;;;;5072155;28;20036;-71
2023/05/10 03:28:44;;;;;;;15.93;5.00;;;;;;;;;;5071957;28;20346;-70
2023/05/10 03:31:11;;;;;;;15.40;4.90;;;;;;;;;;5072722;28;20028;-70
2023/05/10 03:33:46;;;;;;;9.45;4.13;;;;;;;;;;5072794;28;20482;-70
2023/05/10 03:36:12;;;;;;;7.88;4.43;;;;;;;;;;5073719;28;20029;-70
2023/05/10 03:38:38;;;;;;;10.75;4.63;;;;;;;;;;5072841;28;20035;-70
2023/05/10 03:41:04;;;;;;;14.45;4.85;;;;;;;;;;5072820;28;20135;-70
2023/05/10 03:43:29;;;;;;;14.88;5.53;;;;;;;;;;5073091;28;20103;-70
2023/05/10 03:45:55;;;;;;;10.27;4.32;;;;;;;;;;5073157;28;20033;-69
2023/05/10 03:48:21;;;;;;;14.07;4.40;;;;;;;;;;5073102;28;20025;-69
2023/05/10 03:50:49;;;;;;;10.93;4.88;;;;;;;;;;5072970;28;20024;-69
2023/05/10 03:53:15;;;;;;;14.32;5.07;;;;;;;;;;5072689;28;20497;-70
2023/05/10 03:55:41;;;;;;;8.38;5.07;;;;;;;;;;5072996;28;20031;-71
2023/05/10 03:58:07;;;;;;;11.20;5.03;;;;;;;;;;5072801;28;20516;-70
2023/05/10 04:00:33;;;;;;;13.25;4.85;;;;;;;;;;5071825;28;20332;-70
2023/05/10 04:02:59;;;;;;;10.68;4.85;;;;;;;;;;5071566;28;20400;-70
2023/05/10 04:05:25;;;;;;;16.13;5.82;;;;;;;;;;5071848;28;20033;-71
2023/05/10 04:07:51;;;;;;;19.60;5.18;;;;;;;;;;5071323;28;20055;-70
2023/05/10 04:10:17;;;;;;;16.27;4.70;;;;;;;;;;5071939;28;20051;-70
2023/05/10 04:12:43;;;;;;;11.82;4.63;;;;;;;;;;5072159;28;20024;-70
2023/05/10 04:15:09;;;;;;;15.27;5.45;;;;;;;;;;5072170;28;20013;-71
2023/05/10 04:17:35;;;;;;;11.27;5.28;;;;;;;;;;5071878;28;20031;-70
2023/05/10 04:20:01;;;;;;;11.10;5.15;;;;;;;;;;5062721;28;21706;-72
2023/05/10 04:22:28;;;;;;;11.45;4.80;;;;;;;;;;5058467;28;20021;-72
2023/05/10 04:24:54;;;;;;;11.43;5.07;;;;;;;;;;5043356;28;20048;-73
2023/05/10 04:27:20;;;;;;;10.55;5.25;;;;;;;;;;5051030;28;20516;-73
2023/05/10 04:29:46;;;;;;;11.50;5.60;;;;;;;;;;5051167;28;20091;-73
2023/05/10 04:32:12;;;;;;;11.88;5.00;;;;;;;;;;5056185;28;20033;-72
2023/05/10 04:34:38;;;;;;;17.92;5.75;;;;;;;;;;5050788;28;20063;-72
2023/05/10 04:37:05;;;;;;;11.90;5.30;;;;;;;;;;5050975;28;20056;-72
2023/05/10 04:39:32;;;;;;;14.85;4.90;;;;;;;;;;5050838;28;20020;-72
2023/05/10 04:41:58;;;;;;;13.35;4.97;;;;;;;;;;5050809;28;20017;-72
2023/05/10 04:44:24;;;;;;;8.80;4.93;;;;;;;;;;5051714;28;20313;-73
2023/05/10 04:46:50;;;;;;;17.73;4.93;;;;;;;;;;5051348;28;20035;-74
2023/05/10 04:49:16;;;;;;;20.25;4.75;;;;;;;;;;5052477;28;20093;-74
2023/05/10 04:51:42;;;;;;;11.77;5.07;;;;;;;;;;5051358;28;20055;-69
2023/05/10 04:54:08;;;;;;;8.32;5.20;;;;;;;;;;5051003;28;20379;-70
2023/05/10 04:56:34;;;;;;;12.65;4.95;;;;;;;;;;5051735;28;20044;-70
2023/05/10 04:59:00;;;;;;;15.57;5.57;;;;;;;;;;5052268;28;20024;-70
2023/05/10 05:01:26;;;;;;;9.32;4.93;;;;;;;;;;5052517;28;20025;-71
2023/05/10 05:03:52;;;;;;;12.57;4.85;;;;;;;;;;5051617;28;20025;-71
2023/05/10 05:06:18;;;;;;;8.98;5.85;;;;;;;;;;5051959;28;20033;-72
2023/05/10 05:08:44;;;;;;;9.93;5.00;;;;;;;;;;5051929;28;20060;-72
2023/05/10 05:11:10;;;;;;;12.05;4.93;;;;;;;;;;5051572;28;20052;-73
2023/05/10 05:13:37;;;;;;;12.27;5.50;;;;;;;;;;5048046;28;20033;-72
2023/05/10 05:16:03;;;;;;;9.95;5.35;;;;;;;;;;5057966;28;20049;-70
2023/05/10 05:18:29;;;;;;;10.80;4.65;;;;;;;;;;5050445;28;20029;-70
2023/05/10 05:20:55;;;;;;;16.20;5.95;;;;;;;;;;5050980;28;20040;-74
2023/05/10 05:23:24;;;;;;;16.00;5.53;;;;;;;;;;5057064;28;20032;-71
2023/05/10 05:25:50;;;;;;;12.90;5.18;;;;;;;;;;5051510;28;20558;-72
2023/05/10 05:28:16;;;;;;;12.88;5.53;;;;;;;;;;5050366;28;20029;-73
2023/05/10 05:30:42;;;;;;;9.18;5.20;;;;;;;;;;5050934;28;20048;-70
2023/05/10 05:33:08;;;;;;;11.88;5.65;;;;;;;;;;5051915;28;20052;-71
2023/05/10 05:35:34;;;;;;;11.10;4.70;;;;;;;;;;5051449;28;20086;-72
2023/05/10 05:38:00;;;;;;;7.63;5.05;;;;;;;;;;5051668;28;20475;-73
2023/05/10 05:40:26;;;;;;;21.25;6.22;;;;;;;;;;5051022;28;20509;-73
2023/05/10 05:42:52;;;;;;;9.63;4.85;;;;;;;;;;5050771;28;20108;-71
2023/05/10 05:45:19;;;;;;;10.35;5.55;;;;;;;;;;5051122;28;20390;-71
2023/05/10 05:47:45;;;;;;;8.25;4.53;;;;;;;;;;5051624;28;20055;-72
2023/05/10 05:50:11;;;;;;;11.50;5.43;;;;;;;;;;5051076;28;20033;-71
2023/05/10 05:52:37;;;;;;;14.93;5.20;;;;;;;;;;5050553;28;20040;-71
2023/05/10 05:55:03;;;;;;;14.35;5.35;;;;;;;;;;5050820;28;20030;-71
2023/05/10 05:57:29;;;;;;;9.18;4.68;;;;;;;;;;5051124;28;20410;-71
2023/05/10 05:59:55;;;;;;;14.65;5.43;;;;;;;;;;5051075;28;20041;-72
2023/05/10 06:02:21;;;;;;;19.70;5.13;;;;;;;;;;5050722;28;20107;-72
2023/05/10 06:04:47;;;;;;;13.88;5.18;;;;;;;;;;5051183;28;20490;-73
2023/05/10 06:07:13;;;;;;;14.90;4.82;;;;;;;;;;5050555;28;20021;-69
2023/05/10 06:09:39;;;;;;;20.70;6.03;;;;;;;;;;5050861;28;20040;-71
2023/05/10 06:12:05;;;;;;;12.80;4.90;;;;;;;;;;5050825;28;20040;-70
2023/05/10 06:14:31;;;;;;;13.52;5.00;;;;;;;;;;5051064;28;20540;-70
2023/05/10 06:16:59;;;;;;;11.68;5.38;;;;;;;;;;5051224;28;20025;-70
2023/05/10 06:19:26;;;;;;;14.13;5.20;;;;;;;;;;5051115;28;20620;-70
2023/05/10 06:21:52;;;;;;;12.70;5.03;;;;;;;;;;5057077;28;20029;-70
2023/05/10 06:24:18;;;;;;;20.40;5.22;;;;;;;;;;5070955;28;20025;-70
2023/05/10 06:26:44;;;;;;;20.25;5.72;;;;;;;;;;5071396;28;20025;-71
2023/05/10 06:29:10;;;;;;;18.88;5.80;;;;;;;;;;5071579;28;20028;-72
2023/05/10 06:31:36;;;;;;;13.18;5.68;;;;;;;;;;5074116;28;20025;-71
2023/05/10 06:34:02;;;;;;;14.02;5.20;;;;;;;;;;5074395;28;20101;-70
2023/05/10 06:36:28;;;;;;;12.00;5.18;;;;;;;;;;5074364;28;20027;-70
2023/05/10 06:38:54;;;;;;;8.55;4.40;;;;;;;;;;5074896;28;20095;-70
2023/05/10 06:41:20;;;;;;;11.70;5.15;;;;;;;;;;5074638;28;20028;-70
2023/05/10 06:43:46;;;;;;;10.23;4.72;;;;;;;;;;5074492;28;20052;-71
2023/05/10 06:46:12;;;;;;;14.00;5.00;;;;;;;;;;5073983;28;20482;-70
2023/05/10 06:48:38;;;;;;;18.85;5.18;;;;;;;;;;5074220;28;20104;-70
2023/05/10 06:51:04;;;;;;;11.20;5.30;;;;;;;;;;5074026;28;20036;-70
2023/05/10 06:53:30;;;;;;;12.50;5.90;;;;;;;;;;5072997;28;20025;-69
2023/05/10 06:55:56;;;;;;;15.80;5.55;;;;;;;;;;5073007;28;20378;-70
2023/05/10 06:58:22;;;;;;;9.18;5.60;;;;;;;;;;5072844;28;20039;-71
2023/05/10 07:00:48;;;;;;;11.18;5.15;;;;;;;;;;5071577;28;20038;-72
2023/05/10 07:03:14;;;;;;;14.25;5.07;;;;;;;;;;5056029;28;20442;-74
2023/05/10 07:05:40;;;;;;;9.35;5.10;;;;;;;;;;5054661;28;20025;-72
2023/05/10 07:08:07;;;;;;;13.27;4.88;;;;;;;;;;5054172;28;20029;-74
2023/05/10 07:10:33;;;;;;;14.15;5.35;;;;;;;;;;5053366;28;20090;-71
2023/05/10 07:13:01;;;;;;;13.68;5.35;;;;;;;;;;5053287;28;20374;-73
2023/05/10 07:15:27;;;;;;;13.30;5.43;;;;;;;;;;5054051;28;20052;-74
2023/05/10 07:17:53;;;;;;;13.80;5.30;;;;;;;;;;5053368;28;20048;-76
2023/05/10 07:20:19;;;;;;;12.70;5.30;;;;;;;;;;5054135;28;20033;-75
2023/05/10 07:22:45;;;;;;;11.70;5.35;;;;;;;;;;5053637;28;20075;-69
2023/05/10 07:25:11;;;;;;;13.32;5.38;;;;;;;;;;5051488;28;20108;-70
2023/05/10 07:27:37;;;;;;;26.85;6.32;;;;;;;;;;5052512;28;20493;-71
2023/05/10 07:30:03;;;;;;;16.05;5.15;;;;;;;;;;5052480;28;20036;-71
2023/05/10 07:32:29;;;;;;;10.65;5.38;;;;;;;;;;5052676;28;20083;-70
2023/05/10 07:34:55;;;;;;;14.35;5.00;;;;;;;;;;5052694;28;20387;-70
2023/05/10 07:37:21;;;;;;;14.23;5.90;;;;;;;;;;5053023;28;20086;-69
2023/05/10 07:39:47;;;;;;;13.25;5.57;;;;;;;;;;5052710;28;20021;-71
2023/05/10 07:42:13;;;;;;;13.77;5.28;;;;;;;;;;5051431;28;20029;-72
2023/05/10 07:44:39;;;;;;;12.85;5.07;;;;;;;;;;5052806;28;20025;-72
2023/05/10 07:47:05;;;;;;;9.90;5.70;;;;;;;;;;5052568;28;20037;-69
2023/05/10 07:49:31;;;;;;;20.38;5.60;;;;;;;;;;5052937;28;20021;-71
2023/05/10 07:51:57;;;;;;;17.20;5.38;;;;;;;;;;5051897;28;20047;-72
2023/05/10 07:54:23;;;;;;;13.70;5.93;;;;;;;;;;5052334;28;20418;-70
2023/05/10 07:56:49;;;;;;;16.70;5.63;;;;;;;;;;5053075;28;20368;-70
2023/05/10 07:59:18;;;;;;;13.02;5.05;;;;;;;;;;5053302;28;20067;-70
2023/05/10 08:01:44;;;;;;;11.13;5.65;;;;;;;;;;5052976;28;20491;-69
2023/05/10 08:04:11;;;;;;;19.77;6.03;;;;;;;;;;5053088;28;20033;-69
2023/05/10 08:06:37;;;;;;;11.18;5.60;;;;;;;;;;5052968;28;20021;-70
2023/05/10 08:09:03;;;;;;;10.48;5.68;;;;;;;;;;5052516;28;20571;-71
2023/05/10 08:11:29;;;;;;;20.25;5.60;;;;;;;;;;5052504;28;20025;-69
2023/05/10 08:13:55;;;;;;;12.93;5.20;;;;;;;;;;5052534;28;20021;-69
2023/05/10 08:16:21;;;;;;;11.52;4.82;;;;;;;;;;5050932;28;20513;-70
2023/05/10 08:18:48;;;;;;;11.52;5.38;;;;;;;;;;5052308;28;20047;-71
2023/05/10 08:21:15;;;;;;;11.88;5.53;;;;;;;;;;5052550;28;20037;-69
2023/05/10 08:23:41;;;;;;;9.57;4.93;;;;;;;;;;5052142;28;20503;-72
2023/05/10 08:26:07;;;;;;;17.90;6.07;;;;;;;;;;5052544;28;20060;-71
2023/05/10 08:28:33;;;;;;;12.70;6.63;;;;;;;;;;5032217;28;20391;-70
2023/05/10 08:30:59;;;;;;;15.65;5.95;;;;;;;;;;5032369;28;20028;-72
2023/05/10 08:33:25;;;;;;;16.95;5.75;;;;;;;;;;5050701;28;20021;-71
2023/05/10 08:35:52;;;;;;;12.95;5.18;;;;;;;;;;5052222;28;20548;-70
2023/05/10 08:38:18;;;;;;;23.45;5.68;;;;;;;;;;5052140;28;20025;-70
2023/05/10 08:40:44;;;;;;;11.25;5.28;;;;;;;;;;5052155;28;20143;-72
2023/05/10 08:43:11;;;;;;;10.18;5.05;;;;;;;;;;5052136;28;20032;-70
2023/05/10 08:45:38;;;;;;;19.27;5.95;;;;;;;;;;5052094;28;20021;-70
2023/05/10 08:48:06;;;;;;;9.55;4.88;;;;;;;;;;5052036;28;20037;-70
2023/05/10 08:50:32;;;;;;;16.67;5.72;;;;;;;;;;5051449;28;20033;-70
2023/05/10 08:52:59;;;;;;;10.73;5.30;;;;;;;;;;5050072;28;20096;-70
2023/05/10 08:55:25;;;;;;;15.48;5.40;;;;;;;;;;5052123;28;20549;-71
2023/05/10 08:57:51;;;;;;;13.30;5.68;;;;;;;;;;5052552;28;20107;-71
2023/05/10 09:00:18;;;;;;;16.92;4.90;;;;;;;;;;5052143;28;20029;-70
2023/05/10 09:02:45;;;;;;;16.30;6.15;;;;;;;;;;5052155;28;20518;-71
2023/05/10 09:05:11;;;;;;;13.48;5.55;;;;;;;;;;5052073;28;20017;-70
2023/05/10 09:07:37;;;;;;;14.02;4.95;;;;;;;;;;5052822;28;20040;-71
2023/05/10 09:10:04;;;;;;;14.85;5.50;;;;;;;;;;5052519;28;20099;-70
2023/05/10 09:12:30;;;;;;;12.18;5.78;;;;;;;;;;5052097;28;20063;-69
2023/05/10 09:14:58;;;;;;;13.70;5.13;;;;;;;;;;5052400;28;20032;-73
2023/05/10 09:17:25;;;;;;;20.15;6.38;;;;;;;;;;5051968;28;20021;-72
2023/05/10 09:19:57;;;;;;;9.80;5.32;;;;;;;;;;5051843;28;20111;-73
2023/05/10 09:22:24;;;;;;;11.07;5.47;;;;;;;;;;5051881;28;20039;-73
2023/05/10 09:25:03;;;;;;;12.93;5.50;;;;;;;;;;5051974;28;20033;-73
2023/05/10 09:27:29;;;;;;;13.10;5.60;;;;;;;;;;5052259;28;20281;-73
2023/05/10 09:29:55;;;;;;;11.32;5.57;;;;;;;;;;5049347;28;20060;-69
2023/05/10 09:32:21;;;;;;;9.95;5.45;;;;;;;;;;5051314;28;20109;-69
2023/05/10 09:34:50;;;;;;;11.00;6.38;;;;;;;;;;5065351;28;20020;-69
2023/05/10 09:37:16;;;;;;;15.13;5.97;;;;;;;;;;5071618;28;20377;-68
2023/05/10 09:39:42;;;;;;;14.38;6.28;;;;;;;;;;5071756;28;20540;-69
2023/05/10 09:42:09;;;;;;;11.35;5.65;;;;;;;;;;5071424;28;20028;-70
2023/05/10 09:44:36;;;;;;;18.52;6.55;;;;;;;;;;5072459;28;20393;-69
2023/05/10 09:47:02;;;;;;;18.65;5.95;;;;;;;;;;5070370;28;20025;-70
2023/05/10 09:49:28;;;;;;;12.55;6.43;;;;;;;;;;5071307;28;20108;-69
2023/05/10 09:52:05;;;;;;;12.77;7.18;;;;;;;;;;5070748;28;20116;-72
2023/05/10 09:54:31;;;;;;;15.30;6.80;;;;;;;;;;5071135;28;20029;-69
2023/05/10 09:56:57;;;;;;;18.85;7.10;;;;;;;;;;5071367;28;20021;-69
2023/05/10 09:59:26;;;;;;;15.30;6.45;;;;;;;;;;5071366;28;20025;-69
2023/05/10 10:01:52;;;;;;;15.50;7.47;;;;;;;;;;5071426;28;20089;-70
2023/05/10 10:04:21;;;;;;;13.10;6.57;;;;;;;;;;5072899;28;20126;-70
2023/05/10 10:06:47;;;;;;;14.00;6.47;;;;;;;;;;5075462;28;20093;-71
2023/05/10 10:09:13;;;;;;;15.43;7.45;;;;;;;;;;5075626;28;20527;-70
2023/05/10 10:11:41;;;;;;;17.42;7.30;;;;;;;;;;5076083;28;20039;-72
2023/05/10 10:14:07;;;;;;;14.32;7.63;;;;;;;;;;5075751;28;20507;-71
2023/05/10 10:16:33;;;;;;;12.95;7.03;;;;;;;;;;5075386;28;20021;-70
2023/05/10 10:18:59;;;;;;;15.93;8.30;;;;;;;;;;5075262;28;20086;-71
2023/05/10 10:21:25;;;;;;;14.40;6.95;;;;;;;;;;5075101;28;20032;-70
2023/05/10 10:23:52;;;;;;;19.05;8.02;;;;;;;;;;5074577;28;20109;-70
2023/05/10 10:26:19;;;;;;;19.80;9.27;;;;;;;;;;5074813;28;20029;-69
2023/05/10 10:29:02;;;;;;;17.73;9.57;;;;;;;;;;5074929;28;20040;-70
2023/05/10 10:31:41;;;;;;;14.68;7.88;;;;;;;;;;5074597;28;20025;-70
2023/05/10 10:34:09;;;;;;;21.08;8.88;;;;;;;;;;5074842;28;20113;-69
2023/05/10 10:36:43;;;;;;;15.02;9.35;;;;;;;;;;5074593;28;20064;-69
2023/05/10 10:39:10;;;;;;;12.20;8.38;;;;;;;;;;5074505;28;20111;-70
2023/05/10 10:41:37;;;;;;;17.95;9.38;;;;;;;;;;5074336;28;20055;-69
2023/05/10 10:44:22;;;;;;;18.30;8.85;;;;;;;;;;5074158;28;20143;-70
2023/05/10 10:47:08;;;;;;;16.98;9.45;;;;;;;;;;5074405;28;20032;-69
2023/05/10 10:49:38;;;;;;;15.95;9.20;;;;;;;;;;5074118;28;20044;-69
2023/05/10 10:52:17;;;;;;;19.67;9.70;;;;;;;;;;5073867;28;20033;-70
2023/05/10 10:54:52;;;;;;;23.13;8.80;;;;;;;;;;5074940;28;20427;-70
2023/05/10 10:57:19;;;;;;;32.53;11.93;;;;;;;;;;5074935;28;20150;-70
2023/05/10 10:59:46;;;;;;;21.17;10.07;;;;;;;;;;5074330;28;20039;-69
2023/05/10 11:02:30;;;;;;;20.80;11.02;;;;;;;;;;5074214;28;20027;-70
2023/05/10 11:04:56;;;;;;;19.20;9.90;;;;;;;;;;5074489;28;20378;-69
2023/05/10 11:07:22;;;;;;;22.27;10.52;;;;;;;;;;5073651;28;20169;-70
2023/05/10 11:09:49;;;;;;;23.80;11.32;;;;;;;;;;5073441;28;20028;-71
2023/05/10 11:12:15;;;;;;;25.23;10.32;;;;;;;;;;5073480;28;20025;-70
2023/05/10 11:14:41;;;;;;;36.88;10.63;;;;;;;;;;5074193;28;20031;-69
2023/05/10 11:17:27;;;;;;;15.07;10.27;;;;;;;;;;5073052;28;20020;-70
2023/05/10 11:20:14;;;;;;;18.38;10.75;;;;;;;;;;5074074;28;20100;-70
2023/05/10 11:23:06;;;;;;;20.77;9.85;;;;;;;;;;5073445;28;20021;-70
2023/05/10 11:25:32;;;;;;;21.52;10.80;;;;;;;;;;5070286;28;20097;-72
2023/05/10 11:28:03;;;;;;;21.67;11.07;;;;;;;;;;5074100;28;20032;-72
2023/05/10 11:30:29;;;;;;;21.75;11.35;;;;;;;;;;5068664;28;20025;-70
2023/05/10 11:32:55;;;;;;;22.15;9.88;;;;;;;;;;5053982;28;20032;-70
2023/05/10 11:35:21;;;;;;;21.80;10.40;;;;;;;;;;5054179;28;20044;-70
2023/05/10 11:37:48;;;;;;;20.90;11.63;;;;;;;;;;5053725;28;20475;-70
2023/05/10 11:40:14;;;;;;;19.50;11.00;;;;;;;;;;5053495;28;20021;-70
2023/05/10 11:42:40;;;;;;;19.65;12.35;;;;;;;;;;5053201;28;20473;-68
2023/05/10 11:45:07;;;;;;;22.38;10.90;;;;;;;;;;5053028;28;20032;-69
2023/05/10 11:47:35;;;;;;;19.85;11.35;;;;;;;;;;5053277;28;20120;-70
2023/05/10 11:50:01;;;;;;;20.15;11.68;;;;;;;;;;5053202;28;20021;-71
2023/05/10 11:52:27;;;;;;;19.50;11.05;;;;;;;;;;5053231;28;20023;-70
2023/05/10 11:54:53;;;;;;;20.27;11.77;;;;;;;;;;5054061;28;20479;-69
2023/05/10 11:57:20;;;;;;;25.48;11.23;;;;;;;;;;5053821;28;20096;-70
2023/05/10 11:59:46;;;;;;;23.60;12.48;;;;;;;;;;5053477;28;20060;-70
2023/05/10 12:02:15;;;;;;;23.88;12.40;;;;;;;;;;5052952;28;20021;-70
2023/05/10 12:04:41;;;;;;;21.85;12.43;;;;;;;;;;5053388;28;20028;-70
2023/05/10 12:07:07;;;;;;;18.60;10.93;;;;;;;;;;5053509;28;20055;-71
2023/05/10 12:09:33;;;;;;;18.00;11.40;;;;;;;;;;5051368;28;20487;-70
2023/05/10 12:12:00;;;;;;;20.52;11.52;;;;;;;;;;5052101;28;20033;-70
2023/05/10 12:14:26;;;;;;;16.60;11.32;;;;;;;;;;5053232;28;20017;-69
2023/05/10 12:16:52;;;;;;;19.73;11.10;;;;;;;;;;5052948;28;20032;-69
2023/05/10 12:19:20;;;;;;;19.58;10.73;;;;;;;;;;5052676;28;20468;-69
2023/05/10 12:21:46;;;;;;;16.20;12.10;;;;;;;;;;5053063;28;20045;-69
2023/05/10 12:24:13;;;;;;;18.15;10.68;;;;;;;;;;5053847;28;20047;-70
2023/05/10 12:26:39;;;;;;;17.50;10.43;;;;;;;;;;5052608;28;20161;-71
2023/05/10 12:29:15;;;;;;;18.27;11.10;;;;;;;;;;5053625;28;20032;-73
2023/05/10 12:31:50;;;;;;;18.33;10.25;;;;;;;;;;5053944;28;20078;-74
2023/05/10 12:34:38;;;;;;;20.05;11.75;;;;;;;;;;5053039;28;20395;-72
2023/05/10 12:37:04;;;;;;;13.75;8.82;;;;;;;;;;5053388;28;20024;-74
2023/05/10 12:39:43;;;;;;;13.68;9.30;;;;;;;;;;5052992;28;20108;-69
2023/05/10 12:42:09;;;;;;;18.35;10.40;;;;;;;;;;5052290;28;20021;-72
2023/05/10 12:44:35;;;;;;;25.27;11.60;;;;;;;;;;5052571;28;20029;-74
2023/05/10 12:47:01;;;;;;;15.20;9.95;;;;;;;;;;5052420;28;20443;-71
2023/05/10 12:49:27;;;;;;;13.68;10.15;;;;;;;;;;5050012;28;20029;-71
2023/05/10 12:51:53;;;;;;;16.35;9.68;;;;;;;;;;5046107;28;20441;-71
2023/05/10 12:54:19;;;;;;;16.08;10.88;;;;;;;;;;5051660;28;20052;-71
2023/05/10 12:56:45;;;;;;;16.10;9.65;;;;;;;;;;5053671;28;20056;-71
2023/05/10 12:59:11;;;;;;;15.88;9.07;;;;;;;;;;5051895;28;20056;-70
2023/05/10 13:01:37;;;;;;;14.57;9.73;;;;;;;;;;5052921;28;20037;-71
2023/05/10 13:04:03;;;;;;;12.43;8.95;;;;;;;;;;5049623;28;20040;-71
2023/05/10 13:06:29;;;;;;;17.45;8.25;;;;;;;;;;5052368;28;20059;-71
2023/05/10 13:08:55;;;;;;;11.73;6.65;;;;;;;;;;5053756;28;20363;-71
2023/05/10 13:11:21;;;;;;;10.23;7.00;;;;;;;;;;5053105;28;20025;-71
2023/05/10 13:13:47;;;;;;;15.55;9.65;;;;;;;;;;5052312;28;20047;-70
2023/05/10 13:16:13;;;;;;;14.65;7.97;;;;;;;;;;5051771;28;20517;-70
2023/05/10 13:18:39;;;;;;;13.00;7.55;;;;;;;;;;5051429;28;20187;-70
2023/05/10 13:21:05;;;;;;;9.00;6.82;;;;;;;;;;5051633;28;20039;-69
2023/05/10 13:23:31;;;;;;;10.52;7.28;;;;;;;;;;5051646;28;20437;-71
2023/05/10 13:25:57;;;;;;;11.00;6.35;;;;;;;;;;5051897;28;20040;-72
2023/05/10 13:28:23;;;;;;;9.20;6.38;;;;;;;;;;5052775;28;20104;-73
2023/05/10 13:30:49;;;;;;;13.55;6.55;;;;;;;;;;5051695;28;20475;-71
2023/05/10 13:33:15;;;;;;;8.65;6.03;;;;;;;;;;5051226;28;20031;-70
2023/05/10 13:35:41;;;;;;;7.55;5.10;;;;;;;;;;5051236;28;20025;-69
2023/05/10 13:38:07;;;;;;;10.35;6.70;;;;;;;;;;5051404;28;20036;-71
2023/05/10 13:40:33;;;;;;;11.15;6.25;;;;;;;;;;5057613;28;20086;-70
2023/05/10 13:43:00;;;;;;;11.57;6.30;;;;;;;;;;5057835;28;20033;-70
2023/05/10 13:45:26;;;;;;;12.65;6.55;;;;;;;;;;5057972;28;20475;-70
2023/05/10 13:47:51;;;;;;;12.60;6.65;;;;;;;;;;5058224;28;20086;-70
2023/05/10 13:50:18;;;;;;;12.57;7.05;;;;;;;;;;5058088;28;20112;-71
2023/05/10 13:52:44;;;;;;;10.73;6.97;;;;;;;;;;5057550;28;20021;-70
2023/05/10 13:55:12;;;;;;;9.77;6.20;;;;;;;;;;5058420;28;20028;-71
2023/05/10 13:57:38;;;;;;;12.85;8.13;;;;;;;;;;5062808;28;20036;-70
2023/05/10 14:00:04;;;;;;;13.45;9.05;;;;;;;;;;5058290;28;20028;-71
2023/05/10 14:02:30;;;;;;;10.27;7.57;;;;;;;;;;5058005;28;20421;-70
2023/05/10 14:04:56;;;;;;;9.93;7.93;;;;;;;;;;5058527;28;20025;-72
2023/05/10 14:07:22;;;;;;;12.35;8.77;;;;;;;;;;5056187;28;20078;-71
2023/05/10 14:09:49;;;;;;;16.30;7.72;;;;;;;;;;5055240;28;20422;-72
2023/05/10 14:12:15;;;;;;;11.70;7.50;;;;;;;;;;5057395;28;20376;-70
2023/05/10 14:14:41;;;;;;;11.25;7.00;;;;;;;;;;5057708;28;20020;-70
2023/05/10 14:17:07;;;;;;;11.30;7.75;;;;;;;;;;5057709;28;20502;-71
2023/05/10 14:19:33;;;;;;;12.60;7.30;;;;;;;;;;5057787;28;20021;-70
2023/05/10 14:22:00;;;;;;;9.05;6.78;;;;;;;;;;5057328;28;20024;-70
2023/05/10 14:24:25;;;;;;;9.95;6.70;;;;;;;;;;5057690;28;20108;-71
2023/05/10 14:26:53;;;;;;;12.48;7.38;;;;;;;;;;5057646;28;20104;-72
2023/05/10 14:29:20;;;;;;;9.25;7.20;;;;;;;;;;5059487;28;20025;-72
2023/05/10 14:31:46;;;;;;;15.23;8.15;;;;;;;;;;5057836;28;20025;-71